createdAt,value
2018-09-18T00:00:41.721Z,8.47
2018-09-18T00:03:10.033Z,7.50
2018-09-18T00:05:38.280Z,8.37
2018-09-18T00:08:06.529Z,8.53
2018-09-18T00:10:34.752Z,8.33
2018-09-18T00:13:03.002Z,8.00
2018-09-18T00:15:32.005Z,7.70
2018-09-18T00:18:00.280Z,8.10
2018-09-18T00:20:28.543Z,7.70
2018-09-18T00:22:56.770Z,7.90
2018-09-18T00:25:25.036Z,8.67
2018-09-18T00:27:53.065Z,8.77
2018-09-18T00:30:21.309Z,8.37
2018-09-18T00:32:49.557Z,8.53
2018-09-18T00:35:18.037Z,7.70
2018-09-18T00:37:46.272Z,8.03
2018-09-18T00:40:14.545Z,7.83
2018-09-18T00:42:42.833Z,8.20
2018-09-18T00:45:11.153Z,8.43
2018-09-18T00:47:39.389Z,8.17
2018-09-18T00:50:07.737Z,8.23
2018-09-18T00:52:36.593Z,8.10
2018-09-18T00:55:04.916Z,8.47
2018-09-18T00:57:33.149Z,8.27
2018-09-18T01:00:01.402Z,8.40
2018-09-18T01:02:29.629Z,8.50
2018-09-18T01:04:57.897Z,8.33
2018-09-18T01:07:26.181Z,7.30
2018-09-18T01:09:54.405Z,7.70
2018-09-18T01:12:22.638Z,7.80
2018-09-18T01:14:50.664Z,8.43
2018-09-18T01:17:18.633Z,8.30
2018-09-18T01:19:46.628Z,8.10
2018-09-18T01:22:14.646Z,7.90
2018-09-18T01:24:43.225Z,7.83
2018-09-18T01:27:11.600Z,7.60
2018-09-18T01:29:40.581Z,7.80
2018-09-18T01:32:08.641Z,8.43
2018-09-18T01:34:37.345Z,7.73
2018-09-18T01:37:05.392Z,8.00
2018-09-18T01:39:33.374Z,7.37
2018-09-18T01:42:01.470Z,7.60
2018-09-18T01:44:29.566Z,7.70
2018-09-18T01:46:57.544Z,6.87
2018-09-18T01:49:25.803Z,6.90
2018-09-18T01:51:53.855Z,7.73
2018-09-18T01:54:22.118Z,7.20
2018-09-18T01:56:50.185Z,7.23
2018-09-18T01:59:18.389Z,7.20
2018-09-18T02:01:46.438Z,7.80
2018-09-18T02:04:14.598Z,7.10
2018-09-18T02:06:42.653Z,7.87
2018-09-18T02:09:10.653Z,6.90
2018-09-18T02:11:38.717Z,7.07
2018-09-18T02:14:06.710Z,7.07
2018-09-18T02:16:34.690Z,7.03
2018-09-18T02:19:02.730Z,6.90
2018-09-18T02:21:30.717Z,7.17
2018-09-18T02:23:58.774Z,6.47
2018-09-18T02:26:26.767Z,6.73
2018-09-18T02:28:54.762Z,6.50
2018-09-18T02:31:22.755Z,6.30
2018-09-18T02:33:50.735Z,6.97
2018-09-18T02:36:18.710Z,7.10
2018-09-18T02:38:46.710Z,6.43
2018-09-18T02:41:14.691Z,6.33
2018-09-18T02:43:42.727Z,6.93
2018-09-18T02:46:11.411Z,6.33
2018-09-18T02:48:39.734Z,6.87
2018-09-18T02:51:08.523Z,6.70
2018-09-18T02:53:37.307Z,6.47
2018-09-18T02:56:05.321Z,6.17
2018-09-18T02:58:33.306Z,6.27
2018-09-18T03:01:01.351Z,6.10
2018-09-18T03:03:29.410Z,6.67
2018-09-18T03:05:57.419Z,6.20
2018-09-18T03:08:25.463Z,6.70
2018-09-18T03:10:53.463Z,6.23
2018-09-18T03:13:21.439Z,6.67
2018-09-18T03:15:49.752Z,6.53
2018-09-18T03:18:17.736Z,6.00
2018-09-18T03:20:45.738Z,6.30
2018-09-18T03:23:13.708Z,7.23
2018-09-18T03:25:41.791Z,6.70
2018-09-18T03:28:09.828Z,6.90
2018-09-18T03:30:38.579Z,5.93
2018-09-18T03:33:06.588Z,6.77
2018-09-18T03:35:34.643Z,6.87
2018-09-18T03:38:02.604Z,6.80
2018-09-18T03:40:30.603Z,6.83
2018-09-18T03:42:58.588Z,6.93
2018-09-18T03:45:26.648Z,6.80
2018-09-18T03:47:54.696Z,7.13
2018-09-18T03:50:22.755Z,7.07
2018-09-18T03:52:50.764Z,7.13
2018-09-18T03:55:18.911Z,6.93
2018-09-18T03:57:46.905Z,7.07
2018-09-18T04:00:15.040Z,6.83
2018-09-18T04:02:43.118Z,7.30
2018-09-18T04:05:11.056Z,6.50
2018-09-18T04:07:39.077Z,7.43
2018-09-18T04:10:07.404Z,7.13
2018-09-18T04:12:35.672Z,7.10
2018-09-18T04:15:04.475Z,6.80
2018-09-18T04:17:32.831Z,7.20
2018-09-18T04:20:01.076Z,6.57
2018-09-18T04:22:29.360Z,6.50
2018-09-18T04:24:57.629Z,7.20
2018-09-18T04:27:25.873Z,6.90
2018-09-18T04:29:54.153Z,7.70
2018-09-18T04:32:22.385Z,7.50
2018-09-18T04:34:50.633Z,6.63
2018-09-18T04:37:18.949Z,6.90
2018-09-18T04:39:47.184Z,6.70
2018-09-18T04:42:15.556Z,6.30
2018-09-18T04:44:43.861Z,6.33
2018-09-18T04:47:12.657Z,6.93
2018-09-18T04:49:41.037Z,6.57
2018-09-18T04:52:09.280Z,6.60
2018-09-18T04:54:37.789Z,6.33
2018-09-18T04:57:06.273Z,6.97
2018-09-18T04:59:34.513Z,7.07
2018-09-18T05:02:02.931Z,7.10
2018-09-18T05:04:31.277Z,6.97
2018-09-18T05:06:59.558Z,6.90
2018-09-18T05:09:27.971Z,6.67
2018-09-18T05:11:56.058Z,6.77
2018-09-18T05:14:24.309Z,7.00
2018-09-18T05:16:52.589Z,6.53
2018-09-18T05:19:20.889Z,6.90
2018-09-18T05:21:49.173Z,6.30
2018-09-18T05:24:17.449Z,6.67
2018-09-18T05:26:45.687Z,7.13
2018-09-18T05:29:14.113Z,6.50
2018-09-18T05:31:42.425Z,6.43
2018-09-18T05:34:10.709Z,7.40
2018-09-18T05:36:39.318Z,7.03
2018-09-18T05:39:08.905Z,7.03
2018-09-18T05:41:37.137Z,6.57
2018-09-18T05:44:05.325Z,6.83
2018-09-18T05:46:33.561Z,6.53
2018-09-18T05:49:01.846Z,7.20
2018-09-18T05:51:30.146Z,6.20
2018-09-18T05:53:58.450Z,6.57
2018-09-18T05:56:26.730Z,6.80
2018-09-18T05:58:54.962Z,7.90
2018-09-18T06:01:23.009Z,7.17
2018-09-18T06:03:51.242Z,7.17
2018-09-18T06:06:19.525Z,6.70
2018-09-18T06:08:47.796Z,7.20
2018-09-18T06:11:16.069Z,6.87
2018-09-18T06:13:44.448Z,6.87
2018-09-18T06:16:12.738Z,6.83
2018-09-18T06:18:40.804Z,6.80
2018-09-18T06:21:09.429Z,6.83
2018-09-18T06:23:37.725Z,7.27
2018-09-18T06:26:06.048Z,7.13
2018-09-18T06:28:34.337Z,7.60
2018-09-18T06:31:02.575Z,6.70
2018-09-18T06:33:30.830Z,6.50
2018-09-18T06:35:59.105Z,6.97
2018-09-18T06:38:27.078Z,6.67
2018-09-18T06:40:55.121Z,6.93
2018-09-18T06:43:23.410Z,7.10
2018-09-18T06:45:51.867Z,6.87
2018-09-18T06:48:20.194Z,6.90
2018-09-18T06:50:48.478Z,7.00
2018-09-18T06:53:16.798Z,6.97
2018-09-18T06:55:45.083Z,6.33
2018-09-18T06:58:13.408Z,6.90
2018-09-18T07:00:41.658Z,6.77
2018-09-18T07:03:09.668Z,7.03
2018-09-18T07:05:37.963Z,7.00
2018-09-18T07:08:06.210Z,7.43
2018-09-18T07:10:34.502Z,6.93
2018-09-18T07:13:02.494Z,6.67
2018-09-18T07:15:30.742Z,6.60
2018-09-18T07:17:58.782Z,7.10
2018-09-18T07:20:27.015Z,6.43
2018-09-18T07:22:55.265Z,6.23
2018-09-18T07:25:23.549Z,6.77
2018-09-18T07:27:51.995Z,5.92
2018-09-18T07:30:20.228Z,6.37
2018-09-18T07:32:48.494Z,6.20
2018-09-18T07:35:16.779Z,5.97
2018-09-18T07:37:44.764Z,5.87
2018-09-18T07:40:12.778Z,5.87
2018-09-18T07:42:40.787Z,5.63
2018-09-18T07:45:08.766Z,5.30
2018-09-18T07:47:36.831Z,5.20
2018-09-18T07:50:04.854Z,5.00
2018-09-18T07:52:37.335Z,4.87
2018-09-18T07:55:05.331Z,4.60
2018-09-18T07:57:33.312Z,4.20
2018-09-18T08:00:01.309Z,4.03
2018-09-18T08:02:29.432Z,3.63
2018-09-18T08:04:57.435Z,3.90
2018-09-18T08:07:25.440Z,3.97
2018-09-18T08:09:53.422Z,4.17
2018-09-18T08:12:21.533Z,3.80
2018-09-18T08:14:49.544Z,3.97
2018-09-18T08:17:17.535Z,3.90
2018-09-18T08:19:46.235Z,3.60
2018-09-18T08:22:14.148Z,3.97
2018-09-18T08:24:42.172Z,3.67
2018-09-18T08:27:10.185Z,3.63
2018-09-18T08:29:38.184Z,4.03
2018-09-18T08:32:06.184Z,3.67
2018-09-18T08:34:34.175Z,3.53
2018-09-18T08:37:02.186Z,3.60
2018-09-18T08:39:30.296Z,4.03
2018-09-18T08:41:58.270Z,3.77
2018-09-18T08:44:26.272Z,3.33
2018-09-18T08:46:54.266Z,3.70
2018-09-18T08:49:22.260Z,3.83
2018-09-18T08:51:50.252Z,4.10
2018-09-18T08:54:18.228Z,3.93
2018-09-18T08:56:46.337Z,3.97
2018-09-18T08:59:14.352Z,3.35
2018-09-18T09:01:42.396Z,3.27
2018-09-18T09:04:10.458Z,4.30
2018-09-18T09:06:38.618Z,3.45
2018-09-18T09:09:08.612Z,3.45
2018-09-18T09:11:36.583Z,3.30
2018-09-18T09:14:04.580Z,3.30
2018-09-18T09:16:32.553Z,3.42
2018-09-18T09:19:00.797Z,3.72
2018-09-18T09:21:28.797Z,3.40
2018-09-18T09:23:56.811Z,3.62
2018-09-18T09:26:24.869Z,3.45
2018-09-18T09:28:54.041Z,3.37
2018-09-18T09:31:22.161Z,3.25
2018-09-18T09:33:50.201Z,3.30
2018-09-18T09:36:19.527Z,3.52
2018-09-18T09:38:47.559Z,3.75
2018-09-18T09:41:15.543Z,3.60
2018-09-18T09:43:43.703Z,3.67
2018-09-18T09:46:11.648Z,3.83
2018-09-18T09:48:40.428Z,3.30
2018-09-18T09:51:08.462Z,3.20
2018-09-18T09:53:36.421Z,3.90
2018-09-18T09:56:04.417Z,3.10
2018-09-18T09:58:32.437Z,3.70
2018-09-18T10:01:05.930Z,3.80
2018-09-18T10:03:33.922Z,3.42
2018-09-18T10:06:02.041Z,3.50
2018-09-18T10:08:30.042Z,3.45
2018-09-18T10:10:58.148Z,3.40
2018-09-18T10:13:26.081Z,4.03
2018-09-18T10:15:54.053Z,3.47
2018-09-18T10:18:22.042Z,3.50
2018-09-18T10:20:50.046Z,3.52
2018-09-18T10:23:18.122Z,3.62
2018-09-18T10:25:46.158Z,4.08
2018-09-18T10:28:14.341Z,3.60
2018-09-18T10:30:42.428Z,4.12
2018-09-18T10:33:10.490Z,3.85
2018-09-18T10:35:38.645Z,4.33
2018-09-18T10:38:06.690Z,3.80
2018-09-18T10:40:34.678Z,3.90
2018-09-18T10:43:02.689Z,4.00
2018-09-18T10:45:30.782Z,4.33
2018-09-18T10:47:58.790Z,3.87
2018-09-18T10:50:26.830Z,4.20
2018-09-18T10:52:54.836Z,4.50
2018-09-18T10:55:22.895Z,4.58
2018-09-18T10:57:51.044Z,4.90
2018-09-18T11:00:19.038Z,4.87
2018-09-18T11:02:47.042Z,4.40
2018-09-18T11:05:15.048Z,4.42
2018-09-18T11:07:43.262Z,4.28
2018-09-18T11:10:12.116Z,4.87
2018-09-18T11:12:40.792Z,4.35
2018-09-18T11:15:08.797Z,4.28
2018-09-18T11:17:36.849Z,4.60
2018-09-18T11:20:05.171Z,4.58
2018-09-18T11:22:33.198Z,4.58
2018-09-18T11:25:01.283Z,4.53
2018-09-18T11:27:29.234Z,5.10
2018-09-18T11:29:57.308Z,4.70
2018-09-18T11:32:25.307Z,5.05
2018-09-18T11:34:53.340Z,5.08
2018-09-18T11:37:21.467Z,4.75
2018-09-18T11:39:49.643Z,4.90
2018-09-18T11:42:17.791Z,4.70
2018-09-18T11:44:45.826Z,4.58
2018-09-18T11:47:13.974Z,4.65
2018-09-18T11:49:42.063Z,4.53
2018-09-18T11:52:10.131Z,5.20
2018-09-18T11:54:38.151Z,4.42
2018-09-18T11:57:06.665Z,5.28
2018-09-18T11:59:34.751Z,4.60
2018-09-18T12:02:02.878Z,4.60
2018-09-18T12:04:31.045Z,4.67
2018-09-18T12:06:59.075Z,4.60
2018-09-18T12:09:27.144Z,4.80
2018-09-18T12:11:55.131Z,4.75
2018-09-18T12:14:23.452Z,4.55
2018-09-18T12:16:51.584Z,4.45
2018-09-18T12:19:19.524Z,4.62
2018-09-18T12:21:47.558Z,5.08
2018-09-18T12:24:15.613Z,4.40
2018-09-18T12:26:43.856Z,4.67
2018-09-18T12:29:11.876Z,4.60
2018-09-18T12:31:39.880Z,4.42
2018-09-18T12:34:07.880Z,4.37
2018-09-18T12:36:35.892Z,4.65
2018-09-18T12:39:05.508Z,4.50
2018-09-18T12:41:33.621Z,4.60
2018-09-18T12:44:01.496Z,4.15
2018-09-18T12:46:29.573Z,4.25
2018-09-18T12:48:57.567Z,4.80
2018-09-18T12:51:25.648Z,4.53
2018-09-18T12:53:53.761Z,4.22
2018-09-18T12:56:21.681Z,4.22
2018-09-18T12:58:49.788Z,4.80
2018-09-18T13:01:17.815Z,4.95
2018-09-18T13:03:45.825Z,4.22
2018-09-18T13:06:14.025Z,4.53
2018-09-18T13:08:41.981Z,4.60
2018-09-18T13:11:09.964Z,4.62
2018-09-18T13:13:38.325Z,4.62
2018-09-18T13:16:06.384Z,4.75
2018-09-18T13:18:34.385Z,4.55
2018-09-18T13:21:02.388Z,4.55
2018-09-18T13:23:30.425Z,4.53
2018-09-18T13:25:58.385Z,4.10
2018-09-18T13:28:26.367Z,4.62
2018-09-18T13:30:54.376Z,3.90
2018-09-18T13:33:22.490Z,3.60
2018-09-18T13:35:50.557Z,3.50
2018-09-18T13:38:18.573Z,3.30
2018-09-18T13:40:46.602Z,3.50
2018-09-18T13:43:14.789Z,3.20
2018-09-18T13:45:42.897Z,3.10
2018-09-18T13:48:11.070Z,3.55
2018-09-18T13:50:39.090Z,3.10
2018-09-18T13:53:07.405Z,3.60
2018-09-18T13:55:35.532Z,3.65
2018-09-18T13:58:03.610Z,3.15
2018-09-18T14:00:31.674Z,3.85
2018-09-18T14:02:59.717Z,3.30
2018-09-18T14:05:27.783Z,3.58
2018-09-18T14:07:55.811Z,3.12
2018-09-18T14:10:23.867Z,3.17
2018-09-18T14:12:51.865Z,3.10
2018-09-18T14:15:19.993Z,3.40
2018-09-18T14:17:48.198Z,3.33
2018-09-18T14:20:16.357Z,3.10
2018-09-18T14:22:44.398Z,3.00
2018-09-18T14:25:12.462Z,3.10
2018-09-18T14:27:40.518Z,3.17
2018-09-18T14:30:08.562Z,2.98
2018-09-18T14:32:36.623Z,3.00
2018-09-18T14:35:04.638Z,3.30
2018-09-18T14:37:32.674Z,2.87
2018-09-18T14:40:00.703Z,3.20
2018-09-18T14:42:28.705Z,2.98
2018-09-18T14:44:56.742Z,2.98
2018-09-18T14:47:24.733Z,3.22
2018-09-18T14:49:52.714Z,3.37
2018-09-18T14:52:20.781Z,2.98
2018-09-18T14:54:48.838Z,3.07
2018-09-18T14:57:17.032Z,3.10
2018-09-18T14:59:45.248Z,3.50
2018-09-18T15:02:13.364Z,2.83
2018-09-18T15:04:42.333Z,2.85
2018-09-18T15:07:10.603Z,2.87
2018-09-18T15:09:38.601Z,2.80
2018-09-18T15:12:06.613Z,2.72
2018-09-18T15:14:34.661Z,2.60
2018-09-18T15:17:02.686Z,2.80
2018-09-18T15:19:31.129Z,2.52
2018-09-18T15:21:59.213Z,2.70
2018-09-18T15:24:27.321Z,2.92
2018-09-18T15:26:56.217Z,2.30
2018-09-18T15:29:24.289Z,2.60
2018-09-18T15:31:52.306Z,2.22
2018-09-18T15:34:20.466Z,2.75
2018-09-18T15:36:48.578Z,2.70
2018-09-18T15:39:16.784Z,2.67
2018-09-18T15:41:44.844Z,2.62
2018-09-18T15:44:12.930Z,2.30
2018-09-18T15:46:41.123Z,2.35
2018-09-18T15:49:09.187Z,2.70
2018-09-18T15:51:37.284Z,2.70
2018-09-18T15:54:05.664Z,2.52
2018-09-18T15:56:33.736Z,2.40
2018-09-18T15:59:01.754Z,2.52
2018-09-18T16:01:29.930Z,2.92
2018-09-18T16:03:57.903Z,2.52
2018-09-18T16:06:26.030Z,2.92
2018-09-18T16:08:54.039Z,2.58
2018-09-18T16:11:22.208Z,2.33
2018-09-18T16:13:50.376Z,3.42
2018-09-18T16:16:18.501Z,2.72
2018-09-18T16:18:46.410Z,2.58
2018-09-18T16:21:14.639Z,2.95
2018-09-18T16:23:42.938Z,2.90
2018-09-18T16:26:12.327Z,2.50
2018-09-18T16:28:40.519Z,2.70
2018-09-18T16:31:08.542Z,2.77
2018-09-18T16:33:36.558Z,2.77
2018-09-18T16:36:04.564Z,2.60
2018-09-18T16:38:32.662Z,3.08
2018-09-18T16:41:00.694Z,2.67
2018-09-18T16:43:28.755Z,2.90
2018-09-18T16:45:56.767Z,2.97
2018-09-18T16:48:24.811Z,2.67
2018-09-18T16:50:52.771Z,2.83
2018-09-18T16:53:20.787Z,3.12
2018-09-18T16:55:48.807Z,2.60
2018-09-18T16:58:16.783Z,3.20
2018-09-18T17:00:44.943Z,2.90
2018-09-18T17:03:13.037Z,2.85
2018-09-18T17:05:41.351Z,2.58
2018-09-18T17:08:09.323Z,2.87
2018-09-18T17:10:37.371Z,3.17
2018-09-18T17:13:05.343Z,3.17
2018-09-18T17:15:33.319Z,3.00
2018-09-18T17:18:01.351Z,8.78
2018-09-18T17:20:29.451Z,5.00
2018-09-18T17:22:57.434Z,3.47
2018-09-18T17:25:25.475Z,3.08
2018-09-18T17:27:53.484Z,3.10
2018-09-18T17:30:21.486Z,3.65
2018-09-18T17:32:49.488Z,3.52
2018-09-18T17:35:17.476Z,3.40
2018-09-18T17:37:45.456Z,3.62
2018-09-18T17:40:14.305Z,4.08
2018-09-18T17:42:43.290Z,4.30
2018-09-18T17:45:11.364Z,3.77
2018-09-18T17:47:39.570Z,3.52
2018-09-18T17:50:07.576Z,3.70
2018-09-18T17:52:36.036Z,3.50
2018-09-18T17:55:04.043Z,3.37
2018-09-18T17:57:32.080Z,4.10
2018-09-18T18:00:00.105Z,3.67
2018-09-18T18:02:28.081Z,3.87
2018-09-18T18:04:56.361Z,4.33
2018-09-18T18:07:25.137Z,3.52
2018-09-18T18:09:53.640Z,4.67
2018-09-18T18:12:21.758Z,3.85
2018-09-18T18:14:50.053Z,3.80
2018-09-18T18:17:18.145Z,3.35
2018-09-18T18:19:46.184Z,3.37
2018-09-18T18:22:14.204Z,3.77
2018-09-18T18:24:43.161Z,3.73
2018-09-18T18:27:11.191Z,3.80
2018-09-18T18:29:39.188Z,3.60
2018-09-18T18:32:07.509Z,3.42
2018-09-18T18:34:35.514Z,3.80
2018-09-18T18:37:03.545Z,4.00
2018-09-18T18:39:31.619Z,3.50
2018-09-18T18:41:59.813Z,3.73
2018-09-18T18:44:28.025Z,3.30
2018-09-18T18:46:56.293Z,3.80
2018-09-18T18:49:24.570Z,3.80
2018-09-18T18:51:52.588Z,4.03
2018-09-18T18:54:21.033Z,4.03
2018-09-18T18:56:49.131Z,3.60
2018-09-18T18:59:17.248Z,4.03
2018-09-18T19:01:45.281Z,3.90
2018-09-18T19:04:13.328Z,4.40
2018-09-18T19:06:41.764Z,4.45
2018-09-18T19:09:10.278Z,3.95
2018-09-18T19:11:38.473Z,3.62
2018-09-18T19:14:06.494Z,3.52
2018-09-18T19:16:34.502Z,3.77
2018-09-18T19:19:02.989Z,4.13
2018-09-18T19:21:32.870Z,4.35
2018-09-18T19:24:01.086Z,3.92
2018-09-18T19:26:29.188Z,4.28
2018-09-18T19:28:57.253Z,4.73
2018-09-18T19:31:25.271Z,4.33
2018-09-18T19:33:53.319Z,3.90
2018-09-18T19:36:21.315Z,4.47
2018-09-18T19:38:49.368Z,4.47
2018-09-18T19:41:17.425Z,4.07
2018-09-18T19:43:45.515Z,4.57
2018-09-18T19:46:13.545Z,4.23
2018-09-18T19:48:41.824Z,4.80
2018-09-18T19:51:10.663Z,4.50
2018-09-18T19:53:38.663Z,3.93
2018-09-18T19:56:06.735Z,4.80
2018-09-18T19:58:34.919Z,4.20
2018-09-18T20:01:03.008Z,4.00
2018-09-18T20:03:31.035Z,3.83
2018-09-18T20:05:59.133Z,4.13
2018-09-18T20:08:27.133Z,4.60
2018-09-18T20:10:55.128Z,4.27
2018-09-18T20:13:23.116Z,4.50
2018-09-18T20:15:51.129Z,4.50
2018-09-18T20:18:19.125Z,4.07
2018-09-18T20:20:47.255Z,4.30
2018-09-18T20:23:15.270Z,4.50
2018-09-18T20:25:44.427Z,4.30
2018-09-18T20:28:12.476Z,4.30
2018-09-18T20:30:40.580Z,4.53
2018-09-18T20:33:08.716Z,4.00
2018-09-18T20:35:36.794Z,4.20
2018-09-18T20:38:04.951Z,3.67
2018-09-18T20:40:32.969Z,4.30
2018-09-18T20:43:01.227Z,3.97
2018-09-18T20:45:29.272Z,5.03
2018-09-18T20:47:57.254Z,4.30
2018-09-18T20:50:25.324Z,4.40
2018-09-18T20:52:54.915Z,4.47
2018-09-18T20:55:23.097Z,3.80
2018-09-18T20:57:51.095Z,4.60
2018-09-18T21:00:19.196Z,4.30
2018-09-18T21:02:47.301Z,3.63
2018-09-18T21:05:15.376Z,4.10
2018-09-18T21:07:44.267Z,4.20
2018-09-18T21:10:12.884Z,4.27
2018-09-18T21:12:41.608Z,4.03
2018-09-18T21:15:09.704Z,4.20
2018-09-18T21:17:37.723Z,4.60
2018-09-18T21:20:05.737Z,4.47
2018-09-18T21:22:33.732Z,4.20
2018-09-18T21:25:16.596Z,4.60
2018-09-18T21:27:45.688Z,4.10
2018-09-18T21:30:15.344Z,4.33
2018-09-18T21:32:44.131Z,4.17
2018-09-18T21:35:12.148Z,4.00
2018-09-18T21:37:41.015Z,4.10
2018-09-18T21:40:09.068Z,4.53
2018-09-18T21:42:37.183Z,4.47
2018-09-18T21:45:05.171Z,4.17
2018-09-18T21:47:33.214Z,4.33
2018-09-18T21:50:01.206Z,4.00
2018-09-18T21:52:29.218Z,3.90
2018-09-18T21:54:57.223Z,3.83
2018-09-18T21:57:25.419Z,4.43
2018-09-18T21:59:53.464Z,4.80
2018-09-18T22:02:23.050Z,4.83
2018-09-18T22:04:51.057Z,3.43
2018-09-18T22:07:19.158Z,4.37
2018-09-18T22:09:47.167Z,3.30
2018-09-18T22:12:15.341Z,4.07
2018-09-18T22:14:43.360Z,4.17
2018-09-18T22:17:11.390Z,4.00
2018-09-18T22:19:39.413Z,4.20
2018-09-18T22:22:07.526Z,3.83
2018-09-18T22:24:35.474Z,3.83
2018-09-18T22:27:03.585Z,4.15
2018-09-18T22:29:31.699Z,3.83
2018-09-18T22:31:59.777Z,3.80
2018-09-18T22:34:28.686Z,4.30
2018-09-18T22:36:56.679Z,4.33
2018-09-18T22:39:24.712Z,3.43
2018-09-18T22:41:52.723Z,3.87
2018-09-18T22:44:20.695Z,4.47
2018-09-18T22:46:48.697Z,3.97
2018-09-18T22:49:16.673Z,3.93
2018-09-18T22:51:45.121Z,3.83
2018-09-18T22:54:13.134Z,4.00
2018-09-18T22:56:41.204Z,4.27
2018-09-18T22:59:09.193Z,3.80
2018-09-18T23:01:37.608Z,4.23
2018-09-18T23:04:05.688Z,4.30
2018-09-18T23:06:33.789Z,4.47
2018-09-18T23:09:01.818Z,4.17
2018-09-18T23:11:29.814Z,4.50
2018-09-18T23:13:57.806Z,3.90
2018-09-18T23:16:25.800Z,3.93
2018-09-18T23:18:53.962Z,4.17
2018-09-18T23:21:21.875Z,4.20
2018-09-18T23:23:49.863Z,3.67
2018-09-18T23:26:17.879Z,4.40
2018-09-18T23:28:45.950Z,3.97
2018-09-18T23:31:14.036Z,4.13
2018-09-18T23:33:42.034Z,4.57
2018-09-18T23:36:10.037Z,4.13
2018-09-18T23:38:38.126Z,3.90
2018-09-18T23:41:06.136Z,3.70
2018-09-18T23:43:34.197Z,3.50
2018-09-18T23:46:02.182Z,4.20
2018-09-18T23:48:30.168Z,3.80
2018-09-18T23:50:58.207Z,3.83
2018-09-18T23:53:26.180Z,3.47
2018-09-18T23:55:54.239Z,3.87
2018-09-18T23:58:22.243Z,3.97
